Date,TemperatureHighF,TemperatureAvgF,TemperatureLowF,DewpointHighF,DewpointAvgF,DewpointLowF,HumidityHigh,HumidityAvg,HumidityLow,PressureMaxIn,PressureMinIn,WindSpeedMaxMPH,WindSpeedAvgMPH,GustSpeedMaxMPH,PrecipitationSumIn
2013-1-1,75,61,49,60,54,47,94,78,57,30.47,30.29,0,0,0,0.00
2013-1-2,77,65,55,68,60,52,95,86,70,30.32,30.24,0,0,0,0.00
2013-1-3,69,62,56,65,60,55,96,93,85,30.42,30.27,0,0,0,0.25
2013-1-4,59,56,53,57,54,51,95,94,91,30.53,30.40,27,1,27,0.12
2013-1-5,69,60,53,60,54,49,93,84,68,30.55,30.42,0,0,0,0.00
2013-1-6,76,63,58,68,60,56,96,90,73,30.45,30.32,0,0,0,0.00
2013-1-7,65,60,57,61,56,52,95,87,74,30.46,30.35,0,0,0,0.02
2013-1-8,79,67,58,68,62,57,95,84,63,30.47,30.37,0,0,0,0.00
2013-1-9,80,71,65,69,65,62,95,82,62,30.54,30.41,0,0,0,0.00
2013-1-10,78,70,65,68,64,61,95,81,58,30.54,30.45,0,0,0,0.00
2013-1-11,80,69,61,66,62,58,94,78,55,30.51,30.38,0,0,0,0.00
2013-1-12,80,69,61,67,63,59,94,82,59,30.43,30.33,0,0,0,0.00
2013-1-13,78,69,62,67,62,59,91,80,63,30.42,30.31,0,0,0,0.00
2013-1-14,80,68,59,65,60,55,93,77,51,30.44,30.36,0,0,0,0.00
2013-1-15,80,67,58,66,60,55,94,80,57,30.40,30.30,14,0,14,0.00
2013-1-16,81,68,59,66,60,57,95,79,49,30.36,30.25,0,0,0,0.00
2013-1-17,66,59,51,65,54,43,96,85,67,30.41,30.23,0,0,0,0.19
2013-1-18,60,52,40,51,43,33,77,72,63,30.57,30.40,14,0,14,0.00
2013-1-19,72,62,51,59,52,44,84,72,60,30.53,30.37,0,0,0,0.00
2013-1-20,73,63,57,61,56,52,89,78,64,30.43,30.29,0,0,0,0.02
2013-1-21,73,63,57,62,54,49,85,75,60,30.36,30.28,0,0,0,0.00
2013-1-22,66,57,48,49,39,29,77,53,29,30.54,30.33,0,0,0,0.00
2013-1-23,67,53,43,42,37,31,80,56,34,30.63,30.52,0,0,0,0.00
2013-1-24,69,53,41,51,44,37,89,73,44,30.60,30.50,0,0,0,0.00
2013-1-25,71,55,43,57,47,41,93,76,44,30.57,30.44,0,0,0,0.00
2013-1-26,71,58,46,58,51,44,93,81,58,30.54,30.43,0,0,0,0.00
2013-1-27,75,60,48,60,53,46,94,78,46,30.57,30.46,0,0,0,0.00
2013-1-28,78,67,60,65,60,56,93,78,54,30.57,30.45,0,0,0,0.00
2013-1-29,82,69,61,67,62,59,96,81,56,30.48,30.33,0,0,0,0.00
2013-1-30,79,70,63,66,63,60,90,80,61,30.34,30.16,0,0,0,0.00
2013-1-31,68,55,46,64,43,32,91,65,41,30.50,30.17,0,0,0,0.14
2013-2-1,65,53,43,42,34,13,71,53,25,30.62,30.48,0,0,0,0.00
2013-2-2,68,54,44,44,39,30,76,59,25,30.57,30.42,14,0,14,0.00
2013-2-3,68,53,41,53,45,37,89,75,57,30.46,30.34,0,0,0,0.00
2013-2-4,67,52,41,52,41,37,91,71,34,30.40,30.30,0,0,0,0.00
2013-2-5,74,57,42,53,46,38,89,69,44,30.36,30.25,0,0,0,0.00
2013-2-6,76,65,55,60,56,50,89,75,54,30.36,30.27,11,0,11,0.00
2013-2-7,80,67,59,64,61,55,93,80,51,30.31,30.13,0,0,0,0.12
2013-2-8,74,64,56,64,58,52,94,83,64,30.34,30.15,0,0,0,0.00
2013-2-9,74,61,52,56,52,49,94,75,46,30.45,30.32,0,0,0,0.00
2013-2-10,78,67,59,61,57,53,86,73,54,30.50,30.38,0,0,0,0.00
2013-2-11,81,68,60,65,61,56,90,78,58,30.45,30.33,0,0,0,0.00
2013-2-12,80,70,63,69,65,61,95,86,68,30.35,30.20,0,0,0,0.00
2013-2-13,79,69,58,71,65,53,96,88,74,30.25,30.11,0,0,0,0.45
2013-2-14,62,59,56,59,56,54,94,91,86,30.31,30.18,0,0,0,0.33
2013-2-15,65,57,53,55,52,48,95,84,68,30.34,30.21,0,0,0,0.00
2013-2-16,67,55,48,52,44,33,87,68,48,30.40,30.20,0,0,0,0.00
2013-2-17,52,45,36,34,25,17,74,46,33,30.60,30.40,0,0,0,0.00
2013-2-18,66,50,35,46,36,28,80,61,38,30.62,30.45,0,0,0,0.00
2013-2-19,76,62,49,59,53,44,90,74,51,30.47,30.33,0,0,0,0.00
2013-2-20,75,63,58,63,58,52,94,83,63,30.38,30.27,14,0,14,0.00
2013-2-21,81,67,58,66,60,52,90,79,59,30.36,30.24,14,0,14,0.00
2013-2-22,85,71,60,71,65,58,95,82,59,30.32,30.24,14,0,14,0.00
2013-2-23,80,72,68,73,69,65,95,89,77,30.27,30.16,0,0,0,0.00
2013-2-24,82,72,67,73,68,65,96,89,73,30.22,30.13,0,0,0,0.00
2013-2-25,85,74,67,72,68,65,95,84,61,30.16,30.03,0,0,0,0.00
2013-2-26,77,71,65,71,66,60,94,86,69,30.15,29.95,14,0,14,0.34
2013-2-27,72,64,58,60,56,52,87,74,58,30.25,30.13,14,0,14,0.00
2013-2-28,74,63,54,57,52,47,88,69,52,30.27,30.16,14,0,14,0.00
2013-3-1,63,57,52,48,43,38,75,60,52,30.29,30.17,0,0,0,0.00
2013-3-2,60,54,48,43,39,36,70,58,48,30.34,30.24,0,0,0,0.00
2013-3-3,56,48,43,39,34,28,65,58,50,30.42,30.25,0,0,0,0.00
2013-3-4,65,52,41,40,36,29,80,55,38,30.50,30.38,0,0,0,0.00
2013-3-5,75,59,41,60,50,37,88,74,49,30.43,30.29,14,0,14,0.00
2013-3-6,65,59,53,63,46,40,92,64,45,30.40,30.22,0,0,0,0.02
2013-3-7,64,52,44,42,38,32,83,58,37,30.49,30.39,14,0,14,0.00
2013-3-8,72,56,40,50,43,38,90,67,37,30.50,30.39,0,0,0,0.08
2013-3-9,75,62,51,53,48,45,84,63,36,30.48,30.38,0,0,0,0.00
2013-3-10,78,66,58,58,55,51,85,67,46,30.41,30.29,0,0,0,0.00
2013-3-11,80,69,60,62,58,55,87,70,48,30.35,30.13,14,0,14,0.00
2013-3-12,68,64,57,65,58,51,94,82,69,30.32,30.10,14,0,14,0.29
2013-3-13,71,62,55,51,45,33,79,57,28,30.45,30.30,14,0,14,0.00
2013-3-14,64,57,50,50,38,26,77,50,26,30.54,30.42,0,0,0,0.00
2013-3-15,72,57,42,50,41,35,89,59,30,30.55,30.42,0,0,0,0.00
2013-3-16,78,60,44,54,48,41,93,67,33,30.45,30.33,14,0,14,0.00
2013-3-17,81,63,50,61,55,47,94,76,50,30.39,30.26,0,0,0,0.00
2013-3-18,75,68,60,67,62,56,90,82,73,30.29,30.13,0,0,0,0.00
2013-3-19,86,70,61,69,63,59,96,79,52,30.28,30.15,0,0,0,0.00
2013-3-20,72,66,58,67,61,56,91,86,72,30.24,30.07,0,0,0,0.14
2013-3-21,70,59,47,56,44,35,93,61,30,30.26,30.14,0,0,0,0.00
2013-3-22,78,62,46,65,52,41,93,73,43,30.27,30.14,0,0,0,1.19
2013-3-23,83,72,65,75,68,63,95,88,73,30.23,30.05,27,4,27,0.00
2013-3-24,82,73,68,75,70,65,94,90,77,30.07,29.91,27,5,27,0.00
2013-3-25,68,62,56,65,49,39,93,64,41,30.31,30.01,27,3,27,0.00
2013-3-26,59,54,48,46,37,32,65,52,42,30.52,30.30,0,0,0,0.00
2013-3-27,58,50,42,40,35,30,78,57,42,30.59,30.48,0,0,0,0.00
2013-3-28,70,56,42,43,38,31,86,56,29,30.56,30.46,0,0,0,0.00
2013-3-29,77,60,46,53,44,37,90,61,27,30.59,30.46,0,0,0,0.00
2013-3-30,79,64,49,58,50,44,90,65,37,30.52,30.39,0,0,0,0.00
2013-3-31,83,67,54,61,56,51,92,70,41,30.42,30.26,14,0,14,0.00
2013-4-1,83,72,65,70,64,60,90,77,55,30.29,30.21,0,0,0,0.00
2013-4-2,86,71,60,69,62,58,95,76,45,30.35,30.26,0,0,0,0.00
2013-4-3,88,73,62,70,65,58,93,77,51,30.34,30.20,14,0,14,0.04
2013-4-4,74,69,67,70,66,64,93,89,75,30.30,30.11,0,0,0,0.53
2013-4-5,74,67,61,66,61,55,94,83,61,30.27,30.06,20,0,20,0.40
2013-4-6,77,65,55,60,55,50,84,72,51,30.37,30.25,0,0,0,0.00
2013-4-7,84,71,61,64,59,57,92,69,40,30.41,30.30,0,0,0,0.00
2013-4-8,88,74,66,65,61,56,84,65,36,30.38,30.29,0,0,0,0.00
2013-4-9,87,75,63,69,64,60,92,71,49,30.41,30.31,0,0,0,0.00
2013-4-10,88,76,67,69,64,61,88,68,47,30.37,30.22,0,0,0,0.00
2013-4-11,91,78,71,74,70,64,91,76,54,30.23,30.06,0,0,0,0.00
2013-4-12,79,75,70,74,71,67,92,88,82,30.18,30.03,0,0,0,0.00
2013-4-13,88,76,67,72,67,63,94,75,52,30.23,30.13,0,0,0,0.00
2013-4-14,86,75,67,74,68,61,89,79,63,30.26,30.10,0,0,0,0.05
2013-4-15,90,77,67,71,65,60,84,68,49,30.33,30.16,0,0,0,0.00
2013-4-16,94,80,68,74,69,64,93,71,44,30.39,30.27,0,0,0,0.00
2013-4-17,90,80,69,70,66,62,88,64,40,30.40,30.26,0,0,0,0.00
2013-4-18,90,79,70,71,68,64,86,69,47,30.30,30.19,0,0,0,0.00
2013-4-19,92,81,72,75,71,68,91,73,48,30.27,30.19,0,0,0,0.00
2013-4-20,76,69,61,72,62,56,87,79,67,30.40,30.23,0,0,0,0.00
2013-4-21,84,70,61,69,63,56,91,79,60,30.40,30.28,0,0,0,0.04
2013-4-22,83,72,66,70,66,62,95,82,61,30.34,30.23,0,0,0,0.28
2013-4-23,87,74,65,68,64,60,89,71,49,30.37,30.26,0,0,0,0.00
2013-4-24,88,74,65,66,62,55,87,68,34,30.40,30.32,0,0,0,0.00
2013-4-25,88,76,63,70,65,60,92,71,51,30.46,30.35,0,0,0,0.00
2013-4-26,91,78,65,70,66,61,90,68,43,30.50,30.40,0,0,0,0.00
2013-4-27,90,78,70,70,67,63,89,69,43,30.47,30.33,0,0,0,0.00
2013-4-28,89,78,68,69,65,61,83,66,41,30.38,30.22,0,0,0,0.00
2013-4-29,88,78,69,70,67,61,85,70,50,30.28,30.16,0,0,0,0.02
2013-4-30,91,78,68,71,68,63,92,74,41,30.26,30.16,0,0,0,0.51
2013-5-1,75,71,68,72,68,65,93,90,87,30.26,30.16,0,0,0,0.72
2013-5-2,82,73,66,73,68,64,93,84,68,30.22,30.06,0,0,0,0.00
2013-5-3,86,75,68,74,69,66,94,82,60,30.09,29.99,0,0,0,0.44
2013-5-4,83,79,74,69,68,67,85,69,61,30.02,29.98,27,1,27,0.00
2013-5-5,77,73,68,54,52,50,60,48,42,30.19,30.14,26,0,26,0.00
2013-5-6,78,75,73,60,58,56,58,54,50,30.27,30.22,0,0,0,0.00
2013-5-7,78,72,67,63,60,59,76,65,54,30.31,30.25,24,0,24,0.00
2013-5-8,84,72,59,67,60,55,91,68,46,30.39,30.28,27,2,27,0.00
2013-5-9,89,74,60,70,62,57,93,69,41,30.40,30.33,0,0,0,0.00
2013-5-10,94,78,64,73,66,60,93,70,39,30.40,30.25,14,0,14,0.00
2013-5-11,92,79,70,76,71,66,93,77,51,30.31,30.25,0,0,0,0.00
2013-5-12,91,78,70,75,69,66,93,74,52,30.31,30.19,0,0,0,0.00
2013-5-13,86,75,67,69,59,47,89,61,32,30.40,30.27,0,0,0,0.00
2013-5-14,86,73,59,59,48,42,69,44,25,30.47,30.37,0,0,0,0.00
2013-5-15,91,77,63,66,59,55,81,56,32,30.46,30.32,0,0,0,0.00
2013-5-16,91,78,66,68,63,58,84,62,35,30.39,30.25,0,0,0,0.00
2013-5-17,94,80,68,69,65,62,82,63,42,30.35,30.27,0,0,0,0.00
2013-5-18,95,81,72,75,69,65,89,69,44,30.37,30.27,0,0,0,0.00
2013-5-19,94,81,68,75,68,65,92,66,43,30.35,30.24,0,0,0,0.00
2013-5-20,95,81,72,74,69,65,85,69,42,30.32,30.23,0,0,0,0.00
2013-5-21,94,78,70,74,70,66,91,75,48,30.29,30.17,0,0,0,0.07
2013-5-22,90,80,72,76,71,68,89,75,55,30.24,30.15,0,0,0,0.04
2013-5-23,92,81,70,76,71,67,92,73,54,30.27,30.17,0,0,0,0.00
2013-5-24,94,83,72,77,70,64,92,69,40,30.34,30.23,0,0,0,0.00
2013-5-25,96,84,73,71,65,60,82,56,33,30.43,30.31,0,0,0,0.00
2013-5-26,94,81,71,65,59,52,74,50,26,30.47,30.35,0,0,0,0.00
2013-5-27,95,81,68,68,63,60,82,56,34,30.44,30.30,0,0,0,0.00
2013-5-28,96,81,71,73,70,66,87,70,44,30.40,30.27,0,0,0,0.00
2013-5-29,92,81,74,75,71,67,89,72,54,30.35,30.27,14,0,14,0.02
2013-5-30,93,82,75,74,71,68,89,70,51,30.34,30.25,14,0,14,0.00
2013-5-31,95,82,75,74,71,68,82,70,48,30.34,30.25,0,0,0,0.00
2013-6-1,98,82,73,77,73,69,91,75,47,30.31,30.20,0,0,0,1.67
2013-6-2,93,82,73,78,74,71,93,77,56,30.26,30.15,24,1,24,0.00
2013-6-3,92,81,74,78,74,71,93,78,59,30.26,30.15,27,7,27,0.00
2013-6-4,91,81,75,77,73,70,90,78,57,30.27,30.19,27,11,27,0.00
2013-6-5,88,79,74,76,72,70,90,79,60,30.27,30.14,14,0,14,0.10
2013-6-6,83,77,73,77,73,70,96,88,74,30.15,29.90,27,7,27,3.10
2013-6-7,92,82,71,78,73,68,93,74,58,30.22,30.03,27,8,27,0.00
2013-6-8,93,81,73,78,74,70,92,79,58,30.36,30.22,27,6,27,1.29
2013-6-9,94,81,73,78,74,71,94,79,54,30.36,30.27,27,9,27,0.06
2013-6-10,93,83,76,79,74,72,92,76,58,30.34,30.27,14,0,14,0.00
2013-6-11,92,82,76,81,75,71,91,79,53,30.35,30.27,0,0,0,0.55
2013-6-12,95,84,73,80,74,70,94,74,56,30.34,30.26,0,0,0,0.24
2013-6-13,94,84,74,80,74,71,93,72,51,30.31,30.17,27,1,27,0.00
2013-6-14,93,83,76,77,74,71,86,73,54,30.22,30.14,24,0,24,0.00
2013-6-15,94,84,77,78,76,73,89,77,58,30.32,30.17,0,0,0,0.00
2013-6-16,96,85,78,80,76,74,89,75,55,30.34,30.27,0,0,0,0.00
2013-6-17,97,87,76,80,75,73,90,69,51,30.33,30.24,0,0,0,0.00
2013-6-18,97,86,75,81,75,72,92,72,54,30.32,30.23,0,0,0,0.00
2013-6-19,97,86,77,81,75,73,90,71,50,30.29,30.23,0,0,0,0.00
2013-6-20,95,84,76,81,74,70,91,73,50,30.35,30.26,14,0,14,0.39
2013-6-21,94,80,74,77,72,69,89,77,56,30.36,30.28,0,0,0,0.00
2013-6-22,94,83,74,77,72,70,90,71,50,30.37,30.29,0,0,0,0.00
2013-6-23,96,83,76,77,74,70,88,74,45,30.38,30.31,0,0,0,0.25
2013-6-24,96,85,76,76,74,71,89,72,47,30.42,30.31,0,0,0,0.22
2013-6-25,96,85,74,80,74,70,92,72,47,30.39,30.28,27,7,27,0.49
2013-6-26,94,79,74,79,73,70,93,84,59,30.33,30.24,0,0,0,8.61
2013-6-27,95,84,73,80,74,70,94,74,52,30.31,30.19,14,0,14,0.00
2013-6-28,95,84,75,80,75,72,92,74,55,30.23,30.10,0,0,0,0.00
2013-6-29,90,81,76,79,75,72,89,82,69,30.14,30.05,0,0,0,0.45
2013-6-30,93,83,75,80,75,72,92,78,61,30.13,30.05,0,0,0,0.20
2013-7-1,80,76,73,78,73,70,95,91,86,30.24,30.07,27,2,27,1.94
2013-7-2,94,80,72,80,74,71,96,82,58,30.33,30.19,27,1,27,2.12
2013-7-3,94,78,74,79,73,69,93,85,60,30.36,30.27,14,0,14,1.71
2013-7-4,94,80,74,78,73,71,94,82,58,30.40,30.30,0,0,0,0.51
2013-7-5,94,80,74,78,74,70,94,84,58,30.39,30.31,0,0,0,0.59
2013-7-6,94,83,74,78,75,72,94,77,52,30.36,30.27,0,0,0,0.06
2013-7-7,97,83,76,78,75,72,90,77,49,30.39,30.27,0,0,0,0.19
2013-7-8,97,84,76,78,75,70,91,75,47,30.42,30.32,0,0,0,0.71
2013-7-9,97,84,74,79,74,69,93,73,44,30.42,30.29,0,0,0,0.00
2013-7-10,94,84,75,78,73,70,89,71,51,30.35,30.22,0,0,0,0.06
2013-7-11,91,81,75,83,75,71,93,81,65,30.29,30.18,0,0,0,1.02
2013-7-12,94,82,74,80,74,72,94,78,54,30.22,30.14,0,0,0,0.33
2013-7-13,90,79,74,81,74,71,94,85,65,30.23,30.16,0,0,0,0.55
2013-7-14,88,80,74,79,74,72,94,84,71,30.33,30.20,0,0,0,0.24
2013-7-15,94,82,75,76,73,71,90,75,51,30.37,30.27,14,0,14,0.00
2013-7-16,94,81,76,76,73,70,91,77,51,30.41,30.32,14,0,14,0.00
2013-7-17,96,80,72,77,73,66,93,81,51,30.42,30.31,0,0,0,1.66
2013-7-18,91,80,74,76,73,70,92,80,57,30.37,30.29,0,0,0,0.02
2013-7-19,93,80,74,79,74,71,93,83,59,30.38,30.30,0,0,0,0.24
2013-8-11,96,86,78,78,75,73,88,71,49,30.41,30.32,0,0,0,0.00
2013-8-12,97,86,76,79,77,73,91,75,52,30.39,30.27,0,0,0,0.00
2013-8-13,96,87,78,78,76,74,89,71,49,30.31,30.20,0,0,0,0.00
2013-8-14,96,86,77,81,76,73,90,72,54,30.26,30.19,0,0,0,0.00
2013-8-15,95,85,76,78,75,72,88,73,54,30.29,30.21,0,0,0,0.00
2013-8-16,95,86,79,77,75,74,85,71,53,30.30,30.22,0,0,0,0.00
2013-8-17,96,86,77,80,76,72,92,74,55,30.32,30.24,0,0,0,0.09
2013-8-18,93,82,76,79,76,73,92,81,57,30.34,30.26,0,0,0,0.21
2013-8-19,96,83,74,79,74,67,93,74,47,30.31,30.21,27,1,27,1.61
2013-8-20,75,74,74,73,72,71,94,93,93,30.31,30.24,27,24,27,0.00